createdAt,value
2022-09-26T00:01:34.548Z,7.63
2022-09-26T00:04:07.951Z,6.80
2022-09-26T00:06:35.401Z,3.70
2022-09-26T00:09:03.091Z,4.80
2022-09-26T00:11:33.120Z,4.30
2022-09-26T00:14:08.051Z,4.23
2022-09-26T00:16:35.653Z,6.67
2022-09-26T00:19:05.368Z,5.90
2022-09-26T00:21:33.722Z,4.47
2022-09-26T00:24:01.666Z,5.90
2022-09-26T00:26:31.372Z,7.00
2022-09-26T00:29:00.642Z,7.87
2022-09-26T00:31:31.167Z,4.83
2022-09-26T00:33:59.619Z,6.70
2022-09-26T00:36:37.382Z,4.17
2022-09-26T00:39:08.027Z,5.67
2022-09-26T00:41:36.742Z,5.30
2022-09-26T00:44:24.732Z,5.43
2022-09-26T00:46:52.393Z,6.77
2022-09-26T00:49:38.397Z,7.10
2022-09-26T00:52:16.847Z,7.70
2022-09-26T00:54:49.530Z,4.63
2022-09-26T00:57:21.647Z,8.80
2022-09-26T00:59:54.137Z,6.83
2022-09-26T01:02:25.875Z,11.37
2022-09-26T01:04:54.835Z,5.93
2022-09-26T01:07:26.046Z,8.37
2022-09-26T01:09:54.192Z,5.10
2022-09-26T01:12:22.342Z,8.70
2022-09-26T01:14:53.594Z,8.83
2022-09-26T01:17:24.618Z,7.03
2022-09-26T01:20:17.398Z,5.60
2022-09-26T01:22:44.994Z,7.87
2022-09-26T01:25:52.217Z,6.40
2022-09-26T01:28:34.536Z,9.43
2022-09-26T01:31:21.841Z,7.70
2022-09-26T01:34:10.975Z,7.60
2022-09-26T01:36:49.407Z,12.47
2022-09-26T01:39:38.252Z,10.10
2022-09-26T01:42:25.918Z,6.20
2022-09-26T01:45:11.275Z,8.30
2022-09-26T01:47:49.967Z,6.87
2022-09-26T01:50:31.701Z,4.97
2022-09-26T01:53:06.038Z,5.07
2022-09-26T01:56:01.820Z,6.97
2022-09-26T01:58:35.799Z,10.73
2022-09-26T02:01:09.698Z,9.00
2022-09-26T02:03:42.671Z,7.33
2022-09-26T02:06:22.457Z,8.83
2022-09-26T02:08:59.142Z,7.00
2022-09-26T02:11:27.042Z,8.10
2022-09-26T02:14:06.235Z,6.33
2022-09-26T02:16:48.002Z,5.30
2022-09-26T02:19:29.640Z,5.20
2022-09-26T02:21:58.906Z,3.90
2022-09-26T02:24:28.696Z,7.53
2022-09-26T02:26:58.113Z,7.93
2022-09-26T02:29:26.418Z,5.00
2022-09-26T02:31:58.408Z,7.20
2022-09-26T02:34:26.708Z,8.37
2022-09-26T02:36:55.874Z,7.63
2022-09-26T02:39:25.911Z,9.03
2022-09-26T02:42:20.052Z,5.80
2022-09-26T02:45:09.293Z,6.67
2022-09-26T02:48:14.641Z,5.77
2022-09-26T02:51:21.637Z,11.40
2022-09-26T02:54:10.981Z,6.70
2022-09-26T02:57:33.690Z,5.93
2022-09-26T03:00:13.972Z,6.63
2022-09-26T03:03:03.432Z,7.00
2022-09-26T03:05:32.798Z,5.70
2022-09-26T03:08:11.519Z,7.03
2022-09-26T03:10:40.743Z,8.70
2022-09-26T03:13:15.510Z,7.43
2022-09-26T03:15:47.446Z,6.50
2022-09-26T03:18:20.837Z,4.80
2022-09-26T03:20:48.738Z,6.00
2022-09-26T03:23:16.122Z,4.93
2022-09-26T03:25:44.859Z,4.53
2022-09-26T03:28:17.295Z,9.20
2022-09-26T03:30:45.340Z,7.07
2022-09-26T03:33:32.978Z,7.40
2022-09-26T03:36:04.269Z,5.70
2022-09-26T03:38:31.778Z,6.40
2022-09-26T03:41:10.989Z,4.23
2022-09-26T03:44:01.669Z,5.40
2022-09-26T03:46:42.873Z,5.67
2022-09-26T03:49:13.599Z,4.93
2022-09-26T03:51:42.847Z,7.80
2022-09-26T03:54:13.045Z,5.47
2022-09-26T03:56:41.774Z,6.20
2022-09-26T03:59:09.306Z,6.63
2022-09-26T04:01:38.652Z,4.33
2022-09-26T04:04:06.730Z,4.47
2022-09-26T04:06:34.652Z,8.60
2022-09-26T04:09:02.831Z,5.13
2022-09-26T04:11:32.429Z,7.63
2022-09-26T04:13:59.817Z,6.60
2022-09-26T04:16:32.147Z,4.90
2022-09-26T04:19:12.454Z,5.47
2022-09-26T04:21:40.864Z,6.47
2022-09-26T04:24:14.738Z,5.03
2022-09-26T04:26:44.221Z,8.00
2022-09-26T04:29:12.022Z,5.83
2022-09-26T04:31:58.773Z,4.77
2022-09-26T04:34:33.535Z,4.30
2022-09-26T04:37:13.604Z,5.20
2022-09-26T04:39:42.151Z,5.00
2022-09-26T04:42:10.219Z,3.27
2022-09-26T04:44:37.704Z,3.83
2022-09-26T04:47:05.237Z,4.80
2022-09-26T04:50:01.894Z,4.60
2022-09-26T04:52:29.318Z,8.03
2022-09-26T04:54:57.813Z,4.63
2022-09-26T04:57:25.746Z,4.23
2022-09-26T04:59:53.383Z,4.43
2022-09-26T05:02:20.953Z,3.83
2022-09-26T05:04:48.460Z,5.73
2022-09-26T05:07:16.346Z,4.53
2022-09-26T05:09:45.063Z,6.30
2022-09-26T05:12:15.748Z,13.20
2022-09-26T05:14:46.753Z,6.90
2022-09-26T05:17:15.476Z,4.47
2022-09-26T05:19:45.433Z,6.93
2022-09-26T05:22:39.042Z,6.80
2022-09-26T05:25:25.224Z,5.07
2022-09-26T05:27:53.536Z,4.13
2022-09-26T05:30:21.601Z,4.97
2022-09-26T05:32:49.523Z,4.23
2022-09-26T05:35:17.785Z,7.70
2022-09-26T05:37:45.452Z,3.80
2022-09-26T05:40:31.680Z,3.70
2022-09-26T05:43:05.040Z,3.90
2022-09-26T05:45:32.963Z,3.43
2022-09-26T05:48:02.735Z,3.17
2022-09-26T05:50:30.463Z,3.90
2022-09-26T05:52:59.353Z,5.67
2022-09-26T05:55:28.287Z,5.93
2022-09-26T05:58:01.908Z,6.37
2022-09-26T06:00:49.572Z,3.83
2022-09-26T06:03:17.450Z,4.17
2022-09-26T06:06:12.270Z,3.20
2022-09-26T06:08:40.775Z,3.83
2022-09-26T06:11:27.985Z,4.80
2022-09-26T06:13:55.976Z,3.93
2022-09-26T06:16:24.214Z,4.73
2022-09-26T06:18:55.799Z,4.33
2022-09-26T06:21:25.270Z,3.67
2022-09-26T06:23:56.919Z,3.00
2022-09-26T06:26:28.793Z,4.30
2022-09-26T06:29:00.178Z,4.10
2022-09-26T06:31:30.389Z,6.10
2022-09-26T06:34:12.044Z,5.03
2022-09-26T06:36:48.248Z,3.07
2022-09-26T06:39:16.197Z,3.00
2022-09-26T06:41:45.375Z,3.93
2022-09-26T06:44:28.319Z,3.30
2022-09-26T06:47:35.486Z,5.30
2022-09-26T06:50:22.510Z,4.03
2022-09-26T06:52:53.954Z,4.83
2022-09-26T06:55:22.729Z,3.90
2022-09-26T06:57:50.311Z,4.80
2022-09-26T07:00:19.013Z,3.30
2022-09-26T07:03:05.738Z,3.20
2022-09-26T07:06:03.448Z,2.53
2022-09-26T07:08:57.736Z,2.90
2022-09-26T07:14:10.609Z,4.50
2022-09-26T07:16:38.963Z,4.80
2022-09-26T07:19:24.398Z,3.33
2022-09-26T07:22:08.996Z,6.00
2022-09-26T07:24:50.261Z,4.10
2022-09-26T07:27:18.445Z,3.77
2022-09-26T07:29:48.912Z,5.10
2022-09-26T07:32:18.729Z,6.37
2022-09-26T07:35:09.671Z,3.40
2022-09-26T07:37:37.273Z,4.17
2022-09-26T07:40:05.987Z,4.93
2022-09-26T07:42:33.583Z,4.43
2022-09-26T07:48:07.197Z,4.80
2022-09-26T07:50:58.895Z,4.73
2022-09-26T07:53:41.244Z,4.57
2022-09-26T07:56:27.170Z,4.13
2022-09-26T07:59:13.500Z,5.27
2022-09-26T08:01:58.057Z,6.20
2022-09-26T08:04:32.528Z,6.03
2022-09-26T08:07:01.303Z,5.23
2022-09-26T08:09:29.057Z,5.00
2022-09-26T08:12:17.828Z,4.37
2022-09-26T08:14:53.988Z,5.13
2022-09-26T08:17:32.639Z,5.53
2022-09-26T08:20:01.465Z,5.53
2022-09-26T08:22:29.069Z,6.83
2022-09-26T08:24:58.799Z,6.40
2022-09-26T08:27:44.941Z,5.33
2022-09-26T08:30:13.774Z,5.67
2022-09-26T08:32:42.029Z,5.30
2022-09-26T08:35:14.793Z,7.07
2022-09-26T08:38:09.612Z,5.53
2022-09-26T08:41:10.285Z,6.10
2022-09-26T08:44:42.328Z,8.20
2022-09-26T08:47:49.517Z,7.03
2022-09-26T08:50:59.454Z,5.90
2022-09-26T08:53:40.695Z,4.90
2022-09-26T08:56:20.506Z,5.23
2022-09-26T08:58:52.601Z,4.97
2022-09-26T09:01:28.969Z,5.93
2022-09-26T09:04:53.791Z,6.27
2022-09-26T09:07:25.895Z,7.70
2022-09-26T09:10:18.004Z,5.77
2022-09-26T09:13:20.417Z,5.90
2022-09-26T09:16:12.323Z,8.97
2022-09-26T09:19:14.516Z,8.43
2022-09-26T09:22:27.018Z,6.47
2022-09-26T09:25:13.725Z,4.90
2022-09-26T09:28:08.562Z,5.47
2022-09-26T09:31:01.044Z,5.13
2022-09-26T09:33:45.847Z,4.77
2022-09-26T09:36:25.970Z,4.60
2022-09-26T09:39:39.136Z,6.10
2022-09-26T09:42:40.048Z,4.23
2022-09-26T09:45:23.591Z,6.10
2022-09-26T09:47:52.045Z,4.77
2022-09-26T09:50:40.208Z,6.00
2022-09-26T09:53:33.027Z,4.97
2022-09-26T09:56:06.902Z,4.33
2022-09-26T09:58:55.240Z,5.50
2022-09-26T10:01:33.779Z,4.07
2022-09-26T10:04:15.565Z,3.90
2022-09-26T10:06:45.820Z,6.57
2022-09-26T10:09:39.916Z,4.00
2022-09-26T10:12:32.979Z,5.70
2022-09-26T10:15:21.775Z,4.80
2022-09-26T10:18:25.203Z,3.93
2022-09-26T10:21:16.209Z,3.50
2022-09-26T10:23:49.345Z,7.43
2022-09-26T10:26:35.322Z,5.50
2022-09-26T10:29:34.147Z,6.03
2022-09-26T10:32:02.595Z,4.60
2022-09-26T10:34:33.791Z,5.73
2022-09-26T10:37:21.717Z,4.57
2022-09-26T10:40:15.471Z,4.37
2022-09-26T10:42:46.567Z,3.63
2022-09-26T10:45:27.226Z,4.40
2022-09-26T10:48:25.184Z,3.73
2022-09-26T10:51:14.402Z,5.13
2022-09-26T10:53:48.552Z,4.60
2022-09-26T10:56:23.452Z,4.00
2022-09-26T10:58:52.145Z,3.73
2022-09-26T11:01:25.548Z,4.17
2022-09-26T11:03:56.034Z,5.43
2022-09-26T11:06:40.524Z,4.70
2022-09-26T11:09:31.270Z,4.37
2022-09-26T11:12:29.136Z,4.00
2022-09-26T11:15:12.674Z,5.30
2022-09-26T11:17:49.380Z,6.83
2022-09-26T11:20:22.675Z,5.87
2022-09-26T11:23:19.315Z,5.27
2022-09-26T11:26:11.170Z,8.27
2022-09-26T11:28:44.978Z,5.43
2022-09-26T11:31:44.098Z,6.03
2022-09-26T11:34:40.926Z,7.07
2022-09-26T11:37:38.910Z,5.97
2022-09-26T11:40:22.160Z,6.47
2022-09-26T11:43:13.547Z,6.47
2022-09-26T11:46:15.264Z,6.93
2022-09-26T11:49:24.149Z,6.83
2022-09-26T11:52:29.647Z,7.53
2022-09-26T11:55:06.844Z,6.67
2022-09-26T11:58:16.707Z,9.87
2022-09-26T12:01:03.968Z,6.83
2022-09-26T12:03:56.093Z,6.67
2022-09-26T12:06:36.516Z,6.50
2022-09-26T12:09:32.725Z,7.03
2022-09-26T12:12:19.425Z,5.47
2022-09-26T12:15:23.757Z,5.80
2022-09-26T12:18:06.438Z,5.87
2022-09-26T12:20:55.369Z,5.80
2022-09-26T12:23:37.745Z,5.07
2022-09-26T12:26:24.882Z,5.33
2022-09-26T12:29:17.063Z,9.23
2022-09-26T12:32:15.192Z,6.27
2022-09-26T12:35:15.999Z,6.87
2022-09-26T12:38:08.174Z,5.53
2022-09-26T12:40:41.375Z,6.47
2022-09-26T12:43:34.617Z,5.33
2022-09-26T12:46:38.832Z,6.30
2022-09-26T12:49:18.860Z,5.33
2022-09-26T12:52:02.093Z,4.90
2022-09-26T12:54:54.566Z,5.87
2022-09-26T12:57:48.962Z,4.60
2022-09-26T13:00:22.145Z,5.40
2022-09-26T13:03:23.958Z,4.63
2022-09-26T13:06:13.312Z,4.43
2022-09-26T13:09:08.667Z,4.83
2022-09-26T13:12:16.762Z,7.57
2022-09-26T13:15:02.114Z,4.77
2022-09-26T13:17:41.803Z,4.77
2022-09-26T13:20:15.855Z,5.03
2022-09-26T13:22:53.058Z,9.20
2022-09-26T13:25:34.403Z,4.10
2022-09-26T13:28:24.125Z,4.50
2022-09-26T13:31:21.212Z,6.90
2022-09-26T13:34:09.190Z,5.10
2022-09-26T13:36:38.723Z,5.77
2022-09-26T13:39:13.127Z,4.40
2022-09-26T13:42:01.774Z,5.00
2022-09-26T13:44:55.978Z,8.80
2022-09-26T13:47:49.894Z,5.07
2022-09-26T13:50:38.006Z,4.70
2022-09-26T13:53:57.685Z,4.20
2022-09-26T13:56:34.035Z,5.30
2022-09-26T13:59:11.818Z,5.87
2022-09-26T14:02:19.167Z,5.17
2022-09-26T14:04:48.606Z,4.90
2022-09-26T14:07:37.414Z,5.00
2022-09-26T14:10:34.777Z,5.20
2022-09-26T14:13:11.061Z,6.83
2022-09-26T14:15:50.448Z,5.40
2022-09-26T14:18:43.024Z,5.93
2022-09-26T14:21:12.541Z,6.27
2022-09-26T14:23:46.029Z,8.20
2022-09-26T14:26:21.427Z,5.70
2022-09-26T14:28:54.795Z,5.13
2022-09-26T14:31:25.386Z,7.37
2022-09-26T14:34:11.162Z,5.27
2022-09-26T14:36:38.755Z,8.80
2022-09-26T14:39:06.849Z,4.23
2022-09-26T14:41:35.936Z,5.57
2022-09-26T14:44:17.562Z,4.53
2022-09-26T14:46:52.934Z,4.53
2022-09-26T14:49:28.171Z,5.73
2022-09-26T14:51:59.391Z,5.33
2022-09-26T14:54:31.941Z,3.50
2022-09-26T14:57:05.510Z,5.50
2022-09-26T14:59:36.017Z,5.10
2022-09-26T15:02:24.280Z,4.00
2022-09-26T15:05:08.691Z,5.40
2022-09-26T15:07:46.035Z,2.73
2022-09-26T15:10:13.864Z,3.40
2022-09-26T15:13:01.992Z,4.20
2022-09-26T15:15:48.350Z,3.70
2022-09-26T15:18:27.674Z,4.13
2022-09-26T15:21:26.417Z,4.50
2022-09-26T15:23:57.265Z,3.40
2022-09-26T15:26:33.761Z,3.33
2022-09-26T15:29:01.787Z,3.47
2022-09-26T15:31:38.164Z,6.03
2022-09-26T15:34:13.019Z,3.00
2022-09-26T15:36:42.334Z,4.10
2022-09-26T15:39:32.173Z,4.30
2022-09-26T15:42:24.218Z,3.33
2022-09-26T15:44:59.905Z,5.20
2022-09-26T15:47:30.127Z,3.37
2022-09-26T15:50:23.346Z,4.80
2022-09-26T15:52:55.186Z,3.40
2022-09-26T15:55:28.325Z,3.83
2022-09-26T15:57:59.238Z,3.30
2022-09-26T16:00:32.332Z,3.77
2022-09-26T16:03:25.934Z,3.93
2022-09-26T16:05:54.522Z,3.50
2022-09-26T16:08:29.253Z,3.57
2022-09-26T16:10:59.377Z,6.00
2022-09-26T16:13:34.669Z,3.90
2022-09-26T16:16:08.623Z,6.70
2022-09-26T16:18:39.980Z,3.53
2022-09-26T16:21:22.511Z,4.23
2022-09-26T16:23:53.676Z,4.43
2022-09-26T16:26:32.586Z,3.83
2022-09-26T16:29:00.638Z,3.10
2022-09-26T16:31:36.947Z,3.60
2022-09-26T16:34:18.978Z,3.30
2022-09-26T16:36:46.829Z,5.23
2022-09-26T16:39:29.535Z,4.37
2022-09-26T16:42:13.562Z,5.37
2022-09-26T16:44:42.230Z,3.67
2022-09-26T16:47:47.610Z,3.97
2022-09-26T16:50:28.239Z,3.30
2022-09-26T16:52:57.425Z,6.50
2022-09-26T16:55:27.718Z,5.67
2022-09-26T16:58:04.142Z,3.57
2022-09-26T17:00:52.894Z,4.87
2022-09-26T17:03:24.394Z,3.13
2022-09-26T17:05:55.593Z,4.43
2022-09-26T17:08:24.059Z,3.93
2022-09-26T17:10:53.589Z,4.53
2022-09-26T17:13:24.358Z,3.40
2022-09-26T17:15:55.507Z,5.20
2022-09-26T17:18:29.546Z,4.33
2022-09-26T17:20:58.866Z,4.07
2022-09-26T17:23:41.524Z,5.03
2022-09-26T17:26:18.324Z,7.50
2022-09-26T17:28:46.257Z,3.67
2022-09-26T17:31:19.935Z,5.10
2022-09-26T17:33:52.265Z,5.30
2022-09-26T17:36:26.069Z,5.50
2022-09-26T17:38:54.671Z,3.93
2022-09-26T17:41:23.048Z,5.43
2022-09-26T17:43:58.454Z,5.40
2022-09-26T17:46:26.078Z,5.00
2022-09-26T17:48:54.689Z,5.17
2022-09-26T17:51:24.197Z,5.50
2022-09-26T17:53:52.731Z,4.63
2022-09-26T17:56:20.562Z,6.30
2022-09-26T17:58:49.115Z,6.57
2022-09-26T18:01:22.519Z,5.30
2022-09-26T18:03:54.280Z,3.97
2022-09-26T18:06:26.262Z,5.17
2022-09-26T18:08:58.216Z,6.13
2022-09-26T18:11:25.679Z,7.53
2022-09-26T18:13:55.342Z,6.63
2022-09-26T18:16:24.077Z,5.13
2022-09-26T18:18:51.537Z,4.90
2022-09-26T18:21:19.814Z,5.00
2022-09-26T18:24:19.439Z,6.07
2022-09-26T18:26:51.104Z,7.03
2022-09-26T18:29:34.151Z,6.43
2022-09-26T18:32:03.658Z,6.37
2022-09-26T18:34:31.994Z,5.27
2022-09-26T18:37:00.593Z,7.90
2022-09-26T18:39:29.747Z,6.70
2022-09-26T18:42:06.249Z,5.07
2022-09-26T18:44:35.132Z,5.37
2022-09-26T18:47:09.191Z,5.53
2022-09-26T18:49:37.729Z,7.63
2022-09-26T18:52:06.968Z,6.30
2022-09-26T18:54:34.312Z,9.50
2022-09-26T18:57:20.215Z,6.90
2022-09-26T18:59:47.546Z,6.40
2022-09-26T19:02:23.064Z,8.57
2022-09-26T19:04:51.333Z,6.40
2022-09-26T19:07:21.463Z,6.87
2022-09-26T19:09:50.161Z,7.10
2022-09-26T19:12:18.364Z,6.23
2022-09-26T19:14:45.835Z,9.60
2022-09-26T19:17:13.253Z,7.30
2022-09-26T19:19:40.759Z,7.50
2022-09-26T19:22:16.332Z,7.80
2022-09-26T19:24:49.751Z,9.03
2022-09-26T19:27:21.180Z,7.17
2022-09-26T19:29:58.817Z,7.23
2022-09-26T19:32:36.911Z,10.97
2022-09-26T19:35:22.901Z,7.87
2022-09-26T19:37:50.340Z,8.67
2022-09-26T19:40:20.628Z,9.13
2022-09-26T19:42:48.958Z,7.90
2022-09-26T19:45:17.620Z,7.57
2022-09-26T19:47:47.679Z,8.80
2022-09-26T19:50:20.650Z,7.03
2022-09-26T19:52:51.249Z,9.40
2022-09-26T19:55:26.736Z,7.67
2022-09-26T19:57:56.152Z,9.33
2022-09-26T20:00:23.899Z,11.00
2022-09-26T20:02:53.387Z,7.47
2022-09-26T20:05:24.112Z,9.83
2022-09-26T20:07:52.520Z,10.67
2022-09-26T20:10:22.631Z,8.80
2022-09-26T20:12:50.617Z,6.77
2022-09-26T20:15:22.861Z,5.70
2022-09-26T20:17:51.071Z,8.57
2022-09-26T20:20:25.139Z,7.50
2022-09-26T20:22:54.463Z,10.10
2022-09-26T20:25:30.294Z,8.33
2022-09-26T20:27:58.717Z,7.00
2022-09-26T20:30:45.559Z,5.50
2022-09-26T20:33:13.384Z,6.63
2022-09-26T20:35:47.438Z,8.13
2022-09-26T20:38:25.202Z,10.87
2022-09-26T20:41:01.785Z,7.90
2022-09-26T20:43:37.122Z,7.27
2022-09-26T20:46:10.668Z,9.10
2022-09-26T20:48:41.816Z,8.10
2022-09-26T20:51:20.354Z,7.70
2022-09-26T20:53:47.730Z,10.20
2022-09-26T20:56:21.043Z,9.90
2022-09-26T20:58:48.743Z,8.10
2022-09-26T21:01:19.145Z,8.60
2022-09-26T21:03:52.051Z,8.50
2022-09-26T21:06:26.815Z,9.97
2022-09-26T21:08:54.520Z,8.23
2022-09-26T21:11:22.344Z,14.13
2022-09-26T21:13:49.772Z,12.07
2022-09-26T21:16:19.466Z,9.07
2022-09-26T21:18:52.597Z,9.03
2022-09-26T21:21:30.267Z,10.77
2022-09-26T21:24:24.767Z,14.50
2022-09-26T21:26:52.603Z,8.07
2022-09-26T21:29:20.121Z,12.13
2022-09-26T21:31:56.147Z,11.93
2022-09-26T21:34:27.093Z,11.90
2022-09-26T21:36:58.932Z,9.63
2022-09-26T21:39:27.693Z,8.40
2022-09-26T21:41:59.564Z,8.33
2022-09-26T21:44:34.170Z,9.00
2022-09-26T21:47:02.180Z,8.63
2022-09-26T21:49:30.512Z,15.13
2022-09-26T21:52:06.685Z,8.40
2022-09-26T21:54:39.735Z,11.47
2022-09-26T21:57:11.888Z,7.83
2022-09-26T21:59:41.293Z,9.80
2022-09-26T22:02:08.765Z,8.20
2022-09-26T22:04:36.250Z,9.73
2022-09-26T22:07:03.637Z,10.20
2022-09-26T22:09:31.008Z,7.47
2022-09-26T22:11:59.401Z,8.23
2022-09-26T22:14:28.536Z,9.03
2022-09-26T22:16:57.595Z,9.30
2022-09-26T22:19:28.113Z,7.20
2022-09-26T22:21:55.802Z,8.20
2022-09-26T22:24:23.219Z,9.80
2022-09-26T22:26:50.752Z,9.43
2022-09-26T22:29:18.096Z,9.50
2022-09-26T22:31:45.490Z,8.13
2022-09-26T22:34:14.076Z,11.23
2022-09-26T22:36:41.553Z,10.40
2022-09-26T22:39:09.559Z,9.80
2022-09-26T22:41:37.107Z,9.50
2022-09-26T22:44:04.619Z,10.67
2022-09-26T22:46:35.992Z,8.07
2022-09-26T22:49:03.452Z,8.40
2022-09-26T22:51:31.515Z,9.30
2022-09-26T22:53:59.185Z,5.90
2022-09-26T22:56:27.450Z,7.23
2022-09-26T22:58:55.184Z,7.07
2022-09-26T23:01:27.896Z,10.10
2022-09-26T23:03:57.236Z,10.40
2022-09-26T23:06:25.110Z,8.13
2022-09-26T23:08:52.949Z,8.87
2022-09-26T23:11:22.029Z,13.70
2022-09-26T23:13:51.385Z,7.80
2022-09-26T23:16:21.491Z,9.40
2022-09-26T23:18:50.651Z,8.33
2022-09-26T23:21:20.972Z,7.63
2022-09-26T23:23:50.862Z,7.63
2022-09-26T23:26:31.647Z,8.73
2022-09-26T23:28:59.775Z,6.13
2022-09-26T23:31:28.888Z,8.03
2022-09-26T23:33:57.335Z,7.90
2022-09-26T23:36:25.384Z,10.03
2022-09-26T23:38:53.850Z,10.57
2022-09-26T23:41:21.944Z,7.60
2022-09-26T23:43:49.382Z,8.37
2022-09-26T23:46:17.011Z,10.13
2022-09-26T23:48:44.491Z,7.40
2022-09-26T23:51:11.812Z,7.70
2022-09-26T23:53:39.704Z,8.83
2022-09-26T23:56:12.433Z,8.53
2022-09-26T23:58:41.026Z,12.57
